Time;durP1;ratioP1;P1;durP2;ratioP2;P2;SDS_P1;SDS_P2;PMS_P1;PMS_P2;Temp;Humidity;BMP_temperature;BMP_pressure;BME280_temperature;BME280_humidity;BME280_pressure;Samples;Min_cycle;Max_cycle;Signal;HPM_P1;HPM_P2
2021/09/26 00:01:26;;;;;;;;;;;;;;;12.18;81.85;101903.73;1729477;83;20183;-80
2021/09/26 00:03:53;;;;;;;;;;;;;;;12.19;82.25;101901.94;1729423;83;20463;-80
2021/09/26 00:06:19;;;;;;;;;;;;;;;12.19;82.41;101901.48;1729354;81;20084;-80
2021/09/26 00:08:45;;;;;;;;;;;;;;;12.19;82.12;101900.18;1729257;83;20173;-80
2021/09/26 00:11:12;;;;;;;;;;;;;;;12.18;82.04;101895.08;1725264;83;21225;-78
2021/09/26 00:13:39;;;;;;;;;;;;;;;12.16;81.98;101904.25;1725814;81;20084;-79
2021/09/26 00:16:06;;;;;;;;;;;;;;;12.22;82.89;101900.47;1728881;83;20072;-79
2021/09/26 00:18:33;;;;;;;;;;;;;;;12.30;82.57;101895.72;1721656;83;20086;-80
2021/09/26 00:21:00;;;;;;;;;;;;;;;12.38;82.42;101892.72;1716700;83;20430;-80
2021/09/26 00:23:26;;;;;;;;;;;;;;;12.45;82.22;101892.28;1723787;83;21167;-80
2021/09/26 00:25:55;;;;;;;;;;;;;;;12.53;81.97;101899.23;1729278;82;20117;-81
2021/09/26 00:28:22;;;;;;;;;;;;;;;12.59;81.61;101896.28;1724463;83;20410;-79
2021/09/26 00:30:48;;;;;;;;;;;;;;;12.64;81.37;101896.02;1723860;83;20137;-79
2021/09/26 00:33:15;;;;;;;;;;;;;;;12.68;80.94;101898.84;1729101;83;20463;-79
2021/09/26 00:35:41;;;;;;;;;;;;;;;12.67;80.57;101898.45;1726491;82;21144;-79
2021/09/26 00:38:07;;;;;;;;;;;;;;;12.65;80.42;101892.50;1727842;82;20175;-80
2021/09/26 00:40:34;;;;;;;;;;;;;;;12.62;80.38;101887.46;1722804;83;20085;-80
2021/09/26 00:43:00;;;;;;;;;;;;;;;12.60;80.31;101892.73;1722703;83;20268;-80
2021/09/26 00:45:26;;;;;;;;;;;;;;;12.58;80.39;101889.84;1713276;83;20175;-78
2021/09/26 00:47:53;;;;;;;;;;;;;;;12.55;80.43;101889.56;1729462;83;21250;-78
2021/09/26 00:50:19;;;;;;;;;;;;;;;12.52;80.31;101894.09;1729320;83;20100;-79
2021/09/26 00:52:46;;;;;;;;;;;;;;;12.47;80.42;101891.75;1728455;83;20261;-80
2021/09/26 00:55:13;;;;;;;;;;;;;;;12.44;80.74;101891.08;1729499;83;20183;-80
2021/09/26 00:57:42;;;;;;;;;;;;;;;12.40;81.03;101896.06;1729297;83;20422;-82
2021/09/26 01:00:10;;;;;;;;;;;;;;;12.37;81.35;101893.63;1726076;83;21201;-80
2021/09/26 01:02:37;;;;;;;;;;;;;;;12.36;81.65;101894.08;1728116;83;20167;-80
2021/09/26 01:05:04;;;;;;;;;;;;;;;12.37;81.78;101902.73;1721814;83;20176;-82
2021/09/26 01:07:36;;;;;;;;;;;;;;;12.40;81.52;101899.97;1719992;83;20443;-81
2021/09/26 01:10:18;;;;;;;;;;;;;;;12.51;81.20;101897.61;1724928;83;20435;-79
2021/09/26 01:13:23;;;;;;;;;;;;;;;12.63;80.96;101899.56;1728329;83;21148;-79
2021/09/26 01:16:16;;;;;;;;;;;;;;;12.69;80.91;101900.07;1727988;83;20434;-80
2021/09/26 01:18:52;;;;;;;;;;;;;;;12.73;80.69;101901.56;1716026;83;20468;-79
2021/09/26 01:21:24;;;;;;;;;;;;;;;12.73;80.21;101903.34;1729224;83;20431;-80
2021/09/26 01:24:11;;;;;;;;;;;;;;;12.66;80.12;101896.34;1729654;83;20167;-80
2021/09/26 01:26:57;;;;;;;;;;;;;;;12.64;80.25;101902.07;1728025;83;21175;-80
2021/09/26 01:29:42;;;;;;;;;;;;;;;12.58;80.09;101899.80;1719057;83;20122;-82
2021/09/26 01:32:09;;;;;;;;;;;;;;;12.57;80.67;101901.20;1727376;82;20187;-79
2021/09/26 01:34:38;;;;;;;;;;;;;;;12.56;80.57;101905.57;1719755;83;20167;-80
2021/09/26 01:37:08;;;;;;;;;;;;;;;12.54;80.59;101905.28;1725188;83;20121;-81
2021/09/26 01:39:53;;;;;;;;;;;;;;;12.55;80.98;101908.24;1728455;83;21143;-80
2021/09/26 01:42:26;;;;;;;;;;;;;;;12.57;81.00;101905.92;1714321;83;20089;-79
2021/09/26 01:44:56;;;;;;;;;;;;;;;12.60;80.89;101904.95;1728011;83;20121;-78
2021/09/26 01:47:38;;;;;;;;;;;;;;;12.60;80.81;101908.85;1719482;82;20081;-79
2021/09/26 01:50:06;;;;;;;;;;;;;;;12.59;80.68;101904.55;1702974;82;20474;-79
2021/09/26 01:52:34;;;;;;;;;;;;;;;12.58;80.25;101899.80;1723557;83;21146;-82
2021/09/26 01:55:02;;;;;;;;;;;;;;;12.58;79.21;101896.36;1727238;83;20126;-81
2021/09/26 01:57:29;;;;;;;;;;;;;;;12.59;78.60;101898.05;1729175;83;20419;-80
2021/09/26 01:59:59;;;;;;;;;;;;;;;12.59;78.60;101894.14;1723975;83;20137;-81
2021/09/26 02:02:26;;;;;;;;;;;;;;;12.57;78.72;101897.30;1721149;83;20154;-82
2021/09/26 02:05:00;;;;;;;;;;;;;;;12.52;78.69;101901.45;1718698;83;21168;-80
2021/09/26 02:07:30;;;;;;;;;;;;;;;12.47;78.43;101901.33;1725225;83;20544;-80
2021/09/26 02:09:57;;;;;;;;;;;;;;;12.46;78.26;101903.54;1729546;83;20128;-80
2021/09/26 02:12:23;;;;;;;;;;;;;;;12.46;78.82;101908.75;1729493;83;20104;-80
2021/09/26 02:14:49;;;;;;;;;;;;;;;12.45;79.54;101910.50;1729545;83;20112;-77
2021/09/26 02:17:15;;;;;;;;;;;;;;;12.44;78.99;101909.30;1699018;83;21156;-78
2021/09/26 02:19:42;;;;;;;;;;;;;;;12.43;78.03;101904.55;1721893;83;20084;-76
2021/09/26 02:22:09;;;;;;;;;;;;;;;12.44;76.71;101903.64;1719591;83;20136;-78
2021/09/26 02:24:35;;;;;;;;;;;;;;;12.49;75.65;101909.88;1719777;83;20096;-79
2021/09/26 02:27:02;;;;;;;;;;;;;;;12.48;74.81;101914.24;1729662;83;20430;-76
2021/09/26 02:29:28;;;;;;;;;;;;;;;12.48;74.51;101906.89;1729279;82;21155;-80
2021/09/26 02:31:54;;;;;;;;;;;;;;;12.47;73.46;101914.34;1722550;83;20085;-78
2021/09/26 02:34:20;;;;;;;;;;;;;;;12.46;73.07;101906.98;1725407;83;20125;-82
2021/09/26 02:36:47;;;;;;;;;;;;;;;12.47;72.79;101907.38;1729625;83;20132;-83
2021/09/26 02:39:13;;;;;;;;;;;;;;;12.47;73.64;101911.28;1724373;83;20114;-81
2021/09/26 02:41:59;;;;;;;;;;;;;;;12.47;72.03;101916.95;1725067;83;21112;-79
2021/09/26 02:44:34;;;;;;;;;;;;;;;12.51;72.36;101914.08;1729652;83;20135;-82
2021/09/26 02:47:03;;;;;;;;;;;;;;;12.51;71.41;101906.72;1728836;82;20085;-78
2021/09/26 02:49:29;;;;;;;;;;;;;;;12.53;70.90;101903.14;1729619;83;20526;-82
2021/09/26 02:51:55;;;;;;;;;;;;;;;12.54;70.83;101898.77;1724516;83;20117;-79
2021/09/26 02:54:21;;;;;;;;;;;;;;;12.55;70.82;101903.03;1729511;83;21102;-81
2021/09/26 02:56:49;;;;;;;;;;;;;;;12.55;71.85;101899.98;1729500;83;20146;-81
2021/09/26 02:59:16;;;;;;;;;;;;;;;12.54;71.72;101903.98;1729529;83;20109;-78
2021/09/26 03:01:52;;;;;;;;;;;;;;;12.53;71.55;101899.69;1729419;83;20471;-81
2021/09/26 03:04:18;;;;;;;;;;;;;;;12.51;71.94;101906.27;1722608;83;20081;-82
2021/09/26 03:06:45;;;;;;;;;;;;;;;12.48;71.77;101909.03;1724447;82;21803;-82
2021/09/26 03:09:11;;;;;;;;;;;;;;;12.44;72.08;101902.34;1729100;83;20105;-80
2021/09/26 03:11:37;;;;;;;;;;;;;;;12.42;72.13;101908.52;1729551;82;20507;-79
2021/09/26 03:14:04;;;;;;;;;;;;;;;12.42;71.41;101908.06;1729755;83;20108;-81
2021/09/26 03:16:30;;;;;;;;;;;;;;;12.46;70.64;101908.29;1724630;83;20439;-82
2021/09/26 03:18:57;;;;;;;;;;;;;;;12.50;71.67;101907.20;1726622;82;21159;-81
2021/09/26 03:21:23;;;;;;;;;;;;;;;12.52;71.89;101905.81;1729388;82;20120;-80
2021/09/26 03:23:50;;;;;;;;;;;;;;;12.52;72.23;101909.25;1728194;83;20159;-79
2021/09/26 03:26:16;;;;;;;;;;;;;;;12.53;73.27;101915.31;1727760;83;20085;-79
2021/09/26 03:28:42;;;;;;;;;;;;;;;12.49;73.53;101909.88;1717360;83;20113;-81
2021/09/26 03:31:08;;;;;;;;;;;;;;;12.43;73.71;101915.42;1718977;83;21224;-80
2021/09/26 03:33:35;;;;;;;;;;;;;;;12.37;73.76;101905.34;1728148;83;20514;-81
2021/09/26 03:36:01;;;;;;;;;;;;;;;12.34;73.14;101901.60;1721864;83;20199;-82
2021/09/26 03:38:27;;;;;;;;;;;;;;;12.33;72.65;101903.36;1729370;82;20417;-81
2021/09/26 03:40:54;;;;;;;;;;;;;;;12.35;71.73;101901.99;1729869;83;20431;-80
2021/09/26 03:43:20;;;;;;;;;;;;;;;12.39;71.26;101903.03;1729589;83;21166;-82
2021/09/26 03:45:50;;;;;;;;;;;;;;;12.41;71.10;101905.08;1725686;82;20176;-81
2021/09/26 03:48:15;;;;;;;;;;;;;;;12.46;70.39;101907.45;1729192;83;20133;-81
2021/09/26 03:50:41;;;;;;;;;;;;;;;12.52;69.87;101911.86;1728873;83;20117;-82
2021/09/26 03:53:07;;;;;;;;;;;;;;;12.56;69.43;101907.33;1718978;83;20668;-83
2021/09/26 03:55:34;;;;;;;;;;;;;;;12.60;69.25;101907.55;1727547;83;21164;-82
2021/09/26 03:58:00;;;;;;;;;;;;;;;12.64;69.30;101911.64;1725774;82;37580;-79
2021/09/26 04:00:27;;;;;;;;;;;;;;;12.69;69.22;101914.39;1728746;83;20206;-81
2021/09/26 04:02:53;;;;;;;;;;;;;;;12.74;69.07;101914.97;1726190;83;20144;-80
2021/09/26 04:05:19;;;;;;;;;;;;;;;12.79;68.92;101912.58;1727363;82;20085;-81
2021/09/26 04:07:46;;;;;;;;;;;;;;;12.83;69.03;101914.10;1728091;82;21821;-81
2021/09/26 04:10:12;;;;;;;;;;;;;;;12.85;69.32;101911.78;1721306;83;20073;-82
2021/09/26 04:12:38;;;;;;;;;;;;;;;12.87;69.63;101915.59;1729556;83;20494;-79
2021/09/26 04:15:05;;;;;;;;;;;;;;;12.87;69.91;101920.80;1729591;83;20116;-80
2021/09/26 04:17:31;;;;;;;;;;;;;;;12.88;70.32;101923.80;1729001;83;20097;-80
2021/09/26 04:19:57;;;;;;;;;;;;;;;12.90;70.85;101920.63;1729599;83;21172;-81
2021/09/26 04:22:23;;;;;;;;;;;;;;;12.89;71.11;101921.58;1728724;82;20472;-81
2021/09/26 04:24:50;;;;;;;;;;;;;;;12.88;71.68;101920.73;1724708;83;20117;-79
2021/09/26 04:27:16;;;;;;;;;;;;;;;12.88;72.12;101922.48;1719402;83;20134;-80
2021/09/26 04:29:42;;;;;;;;;;;;;;;12.85;72.45;101922.20;1720826;83;20097;-79
2021/09/26 04:32:08;;;;;;;;;;;;;;;12.82;72.75;101922.83;1729340;81;21165;-82
2021/09/26 04:34:35;;;;;;;;;;;;;;;12.80;73.06;101927.27;1726798;82;20142;-78
2021/09/26 04:37:05;;;;;;;;;;;;;;;12.74;73.33;101922.78;1727168;83;20188;-79
2021/09/26 04:39:29;;;;;;;;;;;;;;;12.72;73.54;101921.20;1728675;83;20096;-78
2021/09/26 04:41:55;;;;;;;;;;;;;;;12.72;73.53;101918.59;1728678;83;20108;-80
2021/09/26 04:44:22;;;;;;;;;;;;;;;12.72;73.50;101922.04;1716733;83;21157;-80
2021/09/26 04:46:48;;;;;;;;;;;;;;;12.74;73.51;101929.30;1725099;81;20116;-84
2021/09/26 04:49:14;;;;;;;;;;;;;;;12.76;73.57;101927.08;1729072;83;20077;-77
2021/09/26 04:51:40;;;;;;;;;;;;;;;12.78;73.89;101927.83;1724755;83;20104;-81
2021/09/26 04:54:07;;;;;;;;;;;;;;;12.81;74.12;101926.35;1722277;83;20316;-79
2021/09/26 04:56:33;;;;;;;;;;;;;;;12.84;74.37;101927.48;1727981;83;21763;-78
2021/09/26 04:59:00;;;;;;;;;;;;;;;12.85;74.57;101935.23;1723882;83;20113;-78
2021/09/26 05:01:26;;;;;;;;;;;;;;;12.86;74.93;101932.98;1728362;82;20530;-79
2021/09/26 05:03:52;;;;;;;;;;;;;;;12.86;75.31;101935.59;1725360;82;20096;-79
2021/09/26 05:06:20;;;;;;;;;;;;;;;12.89;75.46;101940.62;1726226;83;20446;-78
2021/09/26 05:08:46;;;;;;;;;;;;;;;12.90;75.66;101940.16;1728550;82;21159;-77
2021/09/26 05:11:12;;;;;;;;;;;;;;;12.93;76.01;101938.70;1721787;81;20239;-79
2021/09/26 05:13:39;;;;;;;;;;;;;;;12.96;76.30;101935.45;1729597;83;20097;-80
2021/09/26 05:16:05;;;;;;;;;;;;;;;13.02;76.34;101945.53;1729573;83;20451;-78
2021/09/26 05:18:32;;;;;;;;;;;;;;;13.07;76.42;101943.53;1727390;83;20084;-79
2021/09/26 05:20:58;;;;;;;;;;;;;;;13.14;76.49;101944.06;1715443;83;21162;-80
2021/09/26 05:23:25;;;;;;;;;;;;;;;13.18;76.57;101942.94;1725467;83;20089;-79
2021/09/26 05:25:51;;;;;;;;;;;;;;;13.23;76.72;101944.38;1729511;83;20081;-78
2021/09/26 05:28:17;;;;;;;;;;;;;;;13.28;76.91;101944.56;1723847;83;20159;-79
2021/09/26 05:30:44;;;;;;;;;;;;;;;13.34;77.06;101948.97;1728785;83;20172;-79
2021/09/26 05:33:10;;;;;;;;;;;;;;;13.40;77.22;101949.91;1711592;82;21150;-80
2021/09/26 05:35:37;;;;;;;;;;;;;;;13.44;77.31;101942.30;1723516;83;20161;-82
2021/09/26 05:38:03;;;;;;;;;;;;;;;13.50;77.60;101946.31;1728424;83;20101;-78
2021/09/26 05:40:29;;;;;;;;;;;;;;;13.56;77.91;101947.30;1723385;82;20142;-79
2021/09/26 05:42:56;;;;;;;;;;;;;;;13.60;78.06;101941.79;1726546;83;20117;-80
2021/09/26 05:45:22;;;;;;;;;;;;;;;13.67;78.62;101942.27;1729490;82;21153;-82
2021/09/26 05:47:48;;;;;;;;;;;;;;;13.78;79.01;101945.92;1727087;82;20306;-82
2021/09/26 05:50:14;;;;;;;;;;;;;;;13.91;79.07;101946.53;1729943;83;20149;-80
2021/09/26 05:52:41;;;;;;;;;;;;;;;14.03;79.08;101949.23;1721679;83;20154;-84
2021/09/26 05:55:08;;;;;;;;;;;;;;;14.16;79.02;101951.48;1729418;83;20208;-78
2021/09/26 05:57:35;;;;;;;;;;;;;;;14.30;78.77;101958.00;1728950;83;21165;-80
2021/09/26 06:00:04;;;;;;;;;;;;;;;14.41;78.67;101956.55;1729544;83;20097;-80
2021/09/26 06:02:33;;;;;;;;;;;;;;;14.53;78.44;101951.86;1727932;83;20096;-81
2021/09/26 06:05:01;;;;;;;;;;;;;;;14.66;78.33;101951.02;1729042;83;20208;-79
2021/09/26 06:07:27;;;;;;;;;;;;;;;14.77;78.24;101956.88;1729603;83;20116;-83
2021/09/26 06:09:53;;;;;;;;;;;;;;;14.94;77.33;101958.41;1718144;83;21154;-82
2021/09/26 06:12:20;;;;;;;;;;;;;;;15.13;76.48;101957.59;1727443;83;20117;-80
2021/09/26 06:14:46;;;;;;;;;;;;;;;15.27;75.66;101957.56;1729964;82;20096;-80
2021/09/26 06:17:12;;;;;;;;;;;;;;;15.41;74.91;101958.81;1729068;82;20478;-82
2021/09/26 06:19:38;;;;;;;;;;;;;;;15.50;74.63;101958.23;1729700;83;20120;-82
2021/09/26 06:22:05;;;;;;;;;;;;;;;15.61;74.72;101957.51;1722309;83;22161;-78
2021/09/26 06:24:32;;;;;;;;;;;;;;;15.70;74.36;101961.66;1723047;83;20097;-80
2021/09/26 06:26:59;;;;;;;;;;;;;;;15.79;74.80;101966.77;1719651;83;20415;-81
2021/09/26 06:29:26;;;;;;;;;;;;;;;15.91;75.58;101965.94;1717654;83;20148;-82
2021/09/26 06:31:53;;;;;;;;;;;;;;;16.00;75.46;101961.84;1727257;81;20120;-81
2021/09/26 06:34:20;;;;;;;;;;;;;;;16.06;75.36;101968.81;1728176;83;21993;-81
2021/09/26 06:36:46;;;;;;;;;;;;;;;16.15;75.33;101966.88;1729377;83;20161;-80
2021/09/26 06:39:12;;;;;;;;;;;;;;;16.24;75.50;101961.50;1729500;83;20431;-86
2021/09/26 06:41:38;;;;;;;;;;;;;;;16.33;75.25;101968.71;1728587;83;20116;-82
2021/09/26 06:44:05;;;;;;;;;;;;;;;16.40;74.84;101967.31;1727852;83;20085;-83
2021/09/26 06:46:31;;;;;;;;;;;;;;;16.49;74.24;101968.48;1726766;83;21212;-80
2021/09/26 06:48:57;;;;;;;;;;;;;;;16.57;73.57;101972.27;1728442;83;20163;-86
2021/09/26 06:51:23;;;;;;;;;;;;;;;16.63;73.12;101970.98;1724035;82;20173;-84
2021/09/26 06:53:50;;;;;;;;;;;;;;;16.73;72.52;101970.70;1729915;83;20184;-81
2021/09/26 06:56:16;;;;;;;;;;;;;;;16.86;72.25;101965.80;1729921;83;20129;-81
2021/09/26 06:58:42;;;;;;;;;;;;;;;16.91;72.02;101974.16;1725688;83;21875;-82
2021/09/26 07:01:09;;;;;;;;;;;;;;;16.96;69.82;101972.53;1729305;83;20089;-85
2021/09/26 07:03:35;;;;;;;;;;;;;;;17.02;68.64;101977.80;1727763;83;20085;-78
2021/09/26 07:06:02;;;;;;;;;;;;;;;17.09;68.24;101972.48;1726193;83;20770;-78
2021/09/26 07:08:29;;;;;;;;;;;;;;;17.14;67.92;101976.44;1729772;83;20132;-80
2021/09/26 07:10:55;;;;;;;;;;;;;;;17.21;67.76;101978.14;1726838;83;22124;-80
2021/09/26 07:13:22;;;;;;;;;;;;;;;17.30;66.92;101978.30;1726624;83;20093;-81
2021/09/26 07:15:48;;;;;;;;;;;;;;;17.41;66.42;101985.40;1724094;83;20112;-80
2021/09/26 07:18:14;;;;;;;;;;;;;;;17.48;66.33;101984.00;1721181;83;20129;-76
2021/09/26 07:20:41;;;;;;;;;;;;;;;17.57;66.53;101987.28;1729183;83;20438;-81
2021/09/26 07:23:08;;;;;;;;;;;;;;;17.65;66.60;101990.16;1728229;82;21156;-83
2021/09/26 07:25:34;;;;;;;;;;;;;;;17.74;65.81;101992.59;1728909;83;20446;-79
2021/09/26 07:28:00;;;;;;;;;;;;;;;17.89;65.18;101992.75;1725991;83;20098;-80
2021/09/26 07:30:26;;;;;;;;;;;;;;;18.01;64.58;101995.75;1729775;83;20513;-75
2021/09/26 07:32:53;;;;;;;;;;;;;;;18.10;64.53;101998.14;1729940;83;20120;-80
2021/09/26 07:35:19;;;;;;;;;;;;;;;18.16;64.53;101999.83;1728200;83;21881;-76
2021/09/26 07:37:45;;;;;;;;;;;;;;;18.25;64.10;102006.19;1730764;83;20176;-80
2021/09/26 07:40:12;;;;;;;;;;;;;;;18.29;64.04;101993.16;1729226;83;20113;-76
2021/09/26 07:42:39;;;;;;;;;;;;;;;18.35;64.34;101993.52;1729001;83;20085;-87
2021/09/26 07:45:09;;;;;;;;;;;;;;;18.42;64.12;101992.09;1715892;83;20121;-82
2021/09/26 07:47:34;;;;;;;;;;;;;;;18.54;63.95;101984.25;1718978;83;22432;-84
2021/09/26 07:50:01;;;;;;;;;;;;;;;18.68;63.17;101989.24;1729704;83;20168;-79
2021/09/26 07:52:28;;;;;;;;;;;;;;;18.80;63.14;101995.67;1723603;83;20148;-80
2021/09/26 07:54:56;;;;;;;;;;;;;;;18.92;62.57;101987.31;1729257;82;20113;-80
2021/09/26 07:57:24;;;;;;;;;;;;;;;19.02;62.01;101993.48;1718353;83;20121;-78
2021/09/26 07:59:51;;;;;;;;;;;;;;;19.14;61.29;101989.88;1729088;83;21149;-78
2021/09/26 08:02:18;;;;;;;;;;;;;;;19.27;61.27;101989.72;1730341;83;20151;-80
2021/09/26 08:04:44;;;;;;;;;;;;;;;19.39;60.63;101986.08;1726194;83;20163;-82
2021/09/26 08:07:11;;;;;;;;;;;;;;;19.49;60.55;101989.66;1722088;82;20129;-79
2021/09/26 08:09:37;;;;;;;;;;;;;;;19.60;59.52;101988.76;1710969;83;20408;-76
2021/09/26 08:12:05;;;;;;;;;;;;;;;19.69;59.22;101990.14;1721562;83;21179;-78
2021/09/26 08:14:31;;;;;;;;;;;;;;;19.83;58.75;101989.00;1728766;82;20438;-79
2021/09/26 08:17:00;;;;;;;;;;;;;;;19.97;57.60;101986.86;1727553;83;20430;-80
2021/09/26 08:19:26;;;;;;;;;;;;;;;20.13;56.68;101985.58;1721951;82;20244;-79
2021/09/26 08:21:53;;;;;;;;;;;;;;;20.27;56.46;101983.45;1728455;83;20125;-78
2021/09/26 08:24:19;;;;;;;;;;;;;;;20.40;55.31;101981.91;1718011;83;21154;-79
2021/09/26 08:26:46;;;;;;;;;;;;;;;20.51;54.27;101980.03;1727183;83;20104;-78
2021/09/26 08:29:12;;;;;;;;;;;;;;;20.63;54.15;101979.44;1720070;83;20144;-78
2021/09/26 08:31:38;;;;;;;;;;;;;;;20.73;54.04;101978.14;1724868;83;20137;-83
2021/09/26 08:34:08;;;;;;;;;;;;;;;20.84;52.56;101974.91;1727302;83;20073;-82
2021/09/26 08:36:35;;;;;;;;;;;;;;;20.98;52.71;101976.33;1729283;83;21117;-80
2021/09/26 08:39:01;;;;;;;;;;;;;;;21.12;51.58;101979.09;1729704;83;20085;-81
2021/09/26 08:41:27;;;;;;;;;;;;;;;21.21;51.60;101978.27;1729164;83;20159;-83
2021/09/26 08:43:55;;;;;;;;;;;;;;;21.24;51.06;101974.86;1729339;83;20126;-78
2021/09/26 08:46:22;;;;;;;;;;;;;;;21.35;50.58;101975.19;1719244;83;20101;-79
2021/09/26 08:48:48;;;;;;;;;;;;;;;21.46;50.29;101980.34;1712961;83;21145;-79
2021/09/26 08:51:15;;;;;;;;;;;;;;;21.56;49.66;101976.73;1726717;83;20092;-77
2021/09/26 08:53:42;;;;;;;;;;;;;;;21.67;48.89;101977.05;1712196;83;20428;-76
2021/09/26 08:56:12;;;;;;;;;;;;;;;21.73;48.69;101974.36;1723296;83;20101;-80
2021/09/26 08:58:40;;;;;;;;;;;;;;;21.83;48.43;101968.54;1726046;83;20399;-79
2021/09/26 09:01:06;;;;;;;;;;;;;;;21.96;48.03;101965.98;1727298;81;21124;-76
2021/09/26 09:03:32;;;;;;;;;;;;;;;22.05;47.97;101965.59;1718434;83;20080;-80
2021/09/26 09:05:58;;;;;;;;;;;;;;;22.09;46.79;101966.98;1723404;83;20132;-78
2021/09/26 09:08:25;;;;;;;;;;;;;;;22.13;45.82;101970.53;1725145;83;20153;-77
2021/09/26 09:10:59;;;;;;;;;;;;;;;22.17;45.72;101961.81;1729426;83;20242;-77
2021/09/26 09:13:33;;;;;;;;;;;;;;;22.21;45.74;101955.23;1729348;83;21158;-77
2021/09/26 09:16:11;;;;;;;;;;;;;;;22.30;45.87;101956.20;1729115;83;20096;-77
2021/09/26 09:18:44;;;;;;;;;;;;;;;22.40;45.88;101951.70;1719233;83;20198;-79
2021/09/26 09:21:25;;;;;;;;;;;;;;;22.45;45.51;101940.18;1722866;83;20101;-77
2021/09/26 09:23:54;;;;;;;;;;;;;;;22.52;44.45;101944.75;1713872;83;20125;-78
2021/09/26 09:26:34;;;;;;;;;;;;;;;22.66;44.81;101943.42;1721252;83;21792;-74
2021/09/26 09:29:00;;;;;;;;;;;;;;;22.78;42.09;101945.39;1728594;83;20096;-77
2021/09/26 09:31:26;;;;;;;;;;;;;;;22.86;41.31;101941.01;1719921;82;20120;-84
2021/09/26 09:33:53;;;;;;;;;;;;;;;23.09;41.89;101938.27;1726336;83;20190;-75
2021/09/26 09:36:28;;;;;;;;;;;;;;;23.71;41.94;101932.48;1728724;83;20113;-78
2021/09/26 09:38:57;;;;;;;;;;;;;;;24.72;40.78;101932.50;1724183;83;21165;-85
2021/09/26 09:41:43;;;;;;;;;;;;;;;26.12;38.39;101941.12;1724794;83;20176;-78
2021/09/26 09:44:12;;;;;;;;;;;;;;;26.91;35.79;101932.95;1729442;83;20081;-75
2021/09/26 09:46:45;;;;;;;;;;;;;;;27.74;34.13;101934.27;1724764;83;20448;-82
2021/09/26 09:49:18;;;;;;;;;;;;;;;28.75;31.56;101941.09;1726997;83;20077;-80
2021/09/26 09:51:52;;;;;;;;;;;;;;;29.24;30.00;101930.45;1724987;82;21158;-76
2021/09/26 09:54:30;;;;;;;;;;;;;;;29.50;30.00;101936.55;1725699;83;20077;-73
2021/09/26 09:56:58;;;;;;;;;;;;;;;29.88;27.85;101937.37;1726091;83;20450;-77
2021/09/26 09:59:34;;;;;;;;;;;;;;;29.70;28.31;101937.02;1715801;82;20121;-76
2021/09/26 10:02:00;;;;;;;;;;;;;;;30.25;27.66;101929.95;1723271;83;20085;-75
2021/09/26 10:04:37;;;;;;;;;;;;;;;30.99;27.19;101927.30;1728690;83;22153;-78
2021/09/26 10:07:28;;;;;;;;;;;;;;;31.83;25.23;101929.14;1729471;83;20419;-75
2021/09/26 10:09:55;;;;;;;;;;;;;;;32.40;24.42;101916.77;1679912;84;20433;-75
2021/09/26 10:12:23;;;;;;;;;;;;;;;33.46;24.12;101923.09;1716223;83;20109;-84
2021/09/26 10:14:55;;;;;;;;;;;;;;;33.90;24.66;101920.16;1729409;83;20151;-78
2021/09/26 10:17:22;;;;;;;;;;;;;;;32.88;25.10;101915.27;1725787;83;21839;-77
2021/09/26 10:19:48;;;;;;;;;;;;;;;31.65;26.71;101920.94;1726018;82;20128;-77
2021/09/26 10:22:17;;;;;;;;;;;;;;;31.60;27.67;101909.98;1728587;83;20407;-76
2021/09/26 10:24:46;;;;;;;;;;;;;;;32.63;25.14;101906.84;1728224;83;20120;-75
2021/09/26 10:27:13;;;;;;;;;;;;;;;33.42;25.36;101907.08;1724054;82;20141;-79
2021/09/26 10:29:42;;;;;;;;;;;;;;;33.78;23.51;101904.46;1729138;83;21152;-80
2021/09/26 10:32:09;;;;;;;;;;;;;;;33.89;23.13;101905.05;1724249;82;20195;-77
2021/09/26 10:34:36;;;;;;;;;;;;;;;33.69;22.07;101907.67;1729456;83;20432;-75
2021/09/26 10:37:05;;;;;;;;;;;;;;;32.94;22.36;101904.97;1726409;82;20085;-78
2021/09/26 10:39:31;;;;;;;;;;;;;;;31.72;23.69;101898.11;1729643;83;20104;-74
2021/09/26 10:42:15;;;;;;;;;;;;;;;30.85;25.31;101891.59;1699037;83;21575;-75
2021/09/26 10:44:46;;;;;;;;;;;;;;;30.48;26.11;101880.06;1722926;82;20132;-81
2021/09/26 10:47:17;;;;;;;;;;;;;;;30.04;26.87;101892.55;1718743;83;20096;-82
2021/09/26 10:50:04;;;;;;;;;;;;;;;29.16;28.53;101885.15;1729190;81;20140;-82
2021/09/26 10:52:36;;;;;;;;;;;;;;;28.44;30.33;101872.38;1723582;83;20455;-76
2021/09/26 10:55:27;;;;;;;;;;;;;;;27.98;31.58;101874.48;1719976;83;21108;-81
2021/09/26 10:58:03;;;;;;;;;;;;;;;27.68;31.07;101876.31;1728444;83;20096;-84
2021/09/26 11:00:32;;;;;;;;;;;;;;;27.54;30.77;101877.95;1728097;83;20128;-81
2021/09/26 11:03:08;;;;;;;;;;;;;;;27.64;29.72;101876.35;1729356;83;20502;-76
2021/09/26 11:05:38;;;;;;;;;;;;;;;27.69;29.79;101869.98;1727290;83;20084;-81
2021/09/26 11:08:08;;;;;;;;;;;;;;;27.83;29.98;101869.97;1729382;83;22017;-81
2021/09/26 11:10:43;;;;;;;;;;;;;;;27.93;29.88;101866.18;1727791;82;20084;-79
2021/09/26 11:13:19;;;;;;;;;;;;;;;28.06;31.02;101869.89;1728705;82;20105;-83
2021/09/26 11:16:12;;;;;;;;;;;;;;;28.42;30.36;101862.41;1727563;83;20152;-83
2021/09/26 11:19:02;;;;;;;;;;;;;;;28.51;29.55;101862.59;1729145;83;20163;-82
2021/09/26 11:21:39;;;;;;;;;;;;;;;28.76;28.45;101862.07;1727791;83;21157;-82
2021/09/26 11:24:08;;;;;;;;;;;;;;;28.57;28.30;101867.18;1727682;83;20085;-76
2021/09/26 11:26:58;;;;;;;;;;;;;;;28.47;28.45;101852.80;1729198;81;20084;-76
2021/09/26 11:29:32;;;;;;;;;;;;;;;28.70;28.72;101846.81;1724451;83;20109;-79
2021/09/26 11:31:59;;;;;;;;;;;;;;;28.49;29.44;101849.45;1718733;81;20144;-75
2021/09/26 11:34:45;;;;;;;;;;;;;;;27.95;29.52;101854.34;1725900;82;21164;-78
2021/09/26 11:37:12;;;;;;;;;;;;;;;27.47;31.00;101850.89;1728747;82;20152;-75
2021/09/26 11:39:39;;;;;;;;;;;;;;;27.10;32.29;101855.20;1729225;83;20168;-76
2021/09/26 11:42:31;;;;;;;;;;;;;;;26.89;32.03;101843.56;1729637;83;20124;-77
2021/09/26 11:44:59;;;;;;;;;;;;;;;26.77;31.89;101846.60;1727571;83;20423;-82
2021/09/26 11:47:26;;;;;;;;;;;;;;;26.70;33.39;101833.70;1719568;82;21155;-78
2021/09/26 11:49:52;;;;;;;;;;;;;;;26.61;33.76;101838.73;1727098;82;20128;-83
2021/09/26 11:52:22;;;;;;;;;;;;;;;26.46;34.22;101841.00;1720246;83;20152;-77
2021/09/26 11:54:49;;;;;;;;;;;;;;;26.25;33.97;101831.00;1722061;83;20184;-78
2021/09/26 11:57:20;;;;;;;;;;;;;;;26.23;34.57;101827.66;1699429;83;20093;-78
2021/09/26 11:59:47;;;;;;;;;;;;;;;26.31;34.38;101834.28;1726775;82;21153;-75
2021/09/26 12:02:14;;;;;;;;;;;;;;;26.37;34.32;101820.77;1727637;81;20097;-75
2021/09/26 12:04:41;;;;;;;;;;;;;;;26.57;34.63;101818.81;1729783;81;20486;-77
2021/09/26 12:07:07;;;;;;;;;;;;;;;26.79;34.58;101817.14;1722701;82;20121;-82
2021/09/26 12:09:37;;;;;;;;;;;;;;;26.68;33.67;101816.22;1709396;83;20448;-78
2021/09/26 12:12:06;;;;;;;;;;;;;;;26.29;34.16;101818.47;1729064;83;21148;-86
2021/09/26 12:14:32;;;;;;;;;;;;;;;25.98;35.07;101808.31;1729436;83;20165;-77
2021/09/26 12:17:02;;;;;;;;;;;;;;;26.02;34.73;101809.63;1729534;83;20117;-85
2021/09/26 12:19:28;;;;;;;;;;;;;;;26.31;34.36;101803.68;1714485;83;20181;-83
2021/09/26 12:21:59;;;;;;;;;;;;;;;26.73;33.59;101797.89;1725236;83;20096;-85
2021/09/26 12:24:35;;;;;;;;;;;;;;;27.08;32.74;101791.94;1726132;83;21152;-79
2021/09/26 12:27:17;;;;;;;;;;;;;;;27.30;32.91;101791.55;1728891;82;20580;-82
2021/09/26 12:29:54;;;;;;;;;;;;;;;27.56;32.28;101789.28;1709630;83;20526;-75
2021/09/26 12:32:29;;;;;;;;;;;;;;;27.44;32.37;101787.27;1716163;83;20108;-74
2021/09/26 12:34:56;;;;;;;;;;;;;;;27.40;33.07;101782.77;1722797;83;20089;-74
2021/09/26 12:37:25;;;;;;;;;;;;;;;27.55;33.15;101774.28;1717947;83;21160;-74
2021/09/26 12:39:54;;;;;;;;;;;;;;;27.60;32.99;101779.88;1721573;83;20156;-75
2021/09/26 12:42:23;;;;;;;;;;;;;;;27.58;32.57;101781.91;1726366;83;20122;-76
2021/09/26 12:44:49;;;;;;;;;;;;;;;27.52;31.33;101777.83;1728782;81;20139;-79